createdAt,value
2022-12-15T00:00:05.664Z,97571.94
2022-12-15T00:03:09.724Z,97569.50
2022-12-15T00:06:13.490Z,97571.50
2022-12-15T00:09:20.496Z,97571.94
2022-12-15T00:12:24.769Z,97565.63
2022-12-15T00:15:28.826Z,97564.09
2022-12-15T00:18:32.839Z,97568.81
2022-12-15T00:21:36.651Z,97568.81
2022-12-15T00:24:40.465Z,97562.53
2022-12-15T00:27:44.567Z,97554.22
2022-12-15T00:30:49.970Z,97549.47
2022-12-15T00:37:18.377Z,97559.00
2022-12-15T00:40:05.437Z,97559.44
2022-12-15T00:42:50.612Z,97567.41
2022-12-15T00:45:54.624Z,97570.06
2022-12-15T00:48:40.637Z,97577.94
2022-12-15T00:51:44.555Z,97576.34
2022-12-15T00:54:48.365Z,97573.94
2022-12-15T00:57:52.305Z,97584.00
2022-12-15T01:00:56.212Z,97576.03
2022-12-15T01:04:00.222Z,97582.31
2022-12-15T01:07:03.894Z,97584.75
2022-12-15T01:10:07.703Z,97579.22
2022-12-15T01:13:11.567Z,97593.06
2022-12-15T01:16:15.409Z,97597.38
2022-12-15T01:19:19.127Z,97600.94
2022-12-15T01:22:05.892Z,97611.56
2022-12-15T01:24:51.316Z,97616.31
2022-12-15T01:27:36.628Z,97624.16
2022-12-15T01:30:25.302Z,97622.28
2022-12-15T01:33:10.832Z,97628.91
2022-12-15T01:36:00.728Z,97631.69
2022-12-15T01:38:50.708Z,97624.16
2022-12-15T01:41:38.779Z,97637.66
2022-12-15T01:44:24.874Z,97645.06
2022-12-15T01:47:13.826Z,97648.19
2022-12-15T01:49:58.928Z,97649.38
2022-12-15T01:52:44.720Z,97645.41
2022-12-15T01:55:35.543Z,97644.59
2022-12-15T01:58:22.393Z,97653.38
2022-12-15T02:01:09.604Z,97654.91
2022-12-15T02:03:55.448Z,97659.66
2022-12-15T02:06:40.732Z,97657.69
2022-12-15T02:09:27.132Z,97661.66
2022-12-15T02:12:24.411Z,97660.09
2022-12-15T02:15:31.123Z,97666.44
2022-12-15T02:18:25.441Z,97669.19
2022-12-15T02:21:24.613Z,97666.75
2022-12-15T02:24:22.186Z,97665.97
2022-12-15T02:27:13.871Z,97667.63
2022-12-15T02:30:37.908Z,97672.41
2022-12-15T02:33:30.025Z,97669.19
2022-12-15T02:36:24.100Z,97675.94
2022-12-15T02:39:12.471Z,97682.56
2022-12-15T02:41:57.924Z,97677.03
2022-12-15T02:45:09.955Z,97679.47
2022-12-15T02:47:58.206Z,97686.56
2022-12-15T02:50:43.735Z,97689.75
2022-12-15T02:53:51.051Z,97693.75
2022-12-15T02:56:51.885Z,97690.53
2022-12-15T02:59:45.387Z,97696.06
2022-12-15T03:02:34.447Z,97702.06
2022-12-15T03:05:21.607Z,97707.13
2022-12-15T03:08:06.647Z,97712.00
2022-12-15T03:10:54.419Z,97712.00
2022-12-15T03:13:41.195Z,97710.78
2022-12-15T03:16:26.381Z,97713.13
2022-12-15T03:19:11.810Z,97721.84
2022-12-15T03:21:57.043Z,97728.59
2022-12-15T03:24:42.424Z,97736.59
2022-12-15T03:27:27.670Z,97740.88
2022-12-15T03:30:13.722Z,97738.53
2022-12-15T03:32:59.581Z,97736.59
2022-12-15T03:35:45.071Z,97740.44
2022-12-15T03:38:30.328Z,97736.44
2022-12-15T03:41:18.257Z,97743.66
2022-12-15T03:44:04.180Z,97740.66
2022-12-15T03:46:49.822Z,97740.44
2022-12-15T03:49:34.891Z,97744.09
2022-12-15T03:52:20.239Z,97738.09
2022-12-15T03:55:06.187Z,97743.88
2022-12-15T03:57:52.207Z,97745.75
2022-12-15T04:00:39.258Z,97747.19
2022-12-15T04:03:25.029Z,97755.81
2022-12-15T04:06:10.261Z,97759.69
2022-12-15T04:08:55.639Z,97772.66
2022-12-15T04:11:40.921Z,97766.00
2022-12-15T04:14:26.231Z,97782.16
2022-12-15T04:17:12.340Z,97791.56
2022-12-15T04:20:10.034Z,97801.09
2022-12-15T04:22:55.668Z,97807.81
2022-12-15T04:25:59.703Z,97800.66
2022-12-15T04:29:03.426Z,97801.41
2022-12-15T04:32:07.408Z,97796.22
2022-12-15T04:35:11.113Z,97801.00
2022-12-15T04:38:15.152Z,97810.06
2022-12-15T04:41:18.868Z,97818.69
2022-12-15T04:44:23.628Z,97813.03
2022-12-15T04:47:27.482Z,97819.94
2022-12-15T04:50:31.366Z,97824.94
2022-12-15T04:53:36.901Z,97826.38
2022-12-15T04:56:41.376Z,97819.97
2022-12-15T04:59:45.472Z,97822.63
2022-12-15T05:02:49.778Z,97835.59
2022-12-15T05:05:53.929Z,97831.94
2022-12-15T05:11:54.918Z,97841.75
2022-12-15T05:14:58.844Z,97843.75
2022-12-15T05:18:02.816Z,97850.75
2022-12-15T05:21:06.719Z,97853.28
2022-12-15T05:24:11.269Z,97857.97
2022-12-15T05:27:15.433Z,97852.75
2022-12-15T05:30:19.625Z,97866.25
2022-12-15T05:33:05.116Z,97856.72
2022-12-15T05:35:50.382Z,97864.50
2022-12-15T05:38:35.872Z,97859.25
2022-12-15T05:41:22.467Z,97875.00
2022-12-15T05:44:11.477Z,97878.13
2022-12-15T05:46:57.088Z,97882.75
2022-12-15T05:49:42.612Z,97888.63
2022-12-15T05:52:27.997Z,97904.81
2022-12-15T05:55:13.508Z,97900.81
2022-12-15T05:57:59.014Z,97910.34
2022-12-15T06:00:44.315Z,97918.44
2022-12-15T06:03:29.837Z,97915.31
2022-12-15T06:06:15.403Z,97918.56
2022-12-15T06:09:00.862Z,97920.19
2022-12-15T06:11:46.629Z,97917.53
2022-12-15T06:14:31.855Z,97906.91
2022-12-15T06:17:17.130Z,97917.53
2022-12-15T06:20:02.818Z,97914.00
2022-12-15T06:22:50.021Z,97922.31
2022-12-15T06:25:35.446Z,97917.63
2022-12-15T06:28:24.031Z,97926.41
2022-12-15T06:31:11.696Z,97940.34
2022-12-15T06:34:02.157Z,97938.81
2022-12-15T06:36:47.958Z,97946.31
2022-12-15T06:39:33.365Z,97947.53
2022-12-15T06:42:18.742Z,97950.75
2022-12-15T06:45:04.401Z,97957.16
2022-12-15T06:47:49.766Z,97958.50
2022-12-15T06:50:35.157Z,97967.56
2022-12-15T06:53:22.931Z,97971.22
2022-12-15T06:56:16.400Z,97975.53
2022-12-15T06:59:03.837Z,97973.09
2022-12-15T07:01:49.293Z,97974.63
2022-12-15T07:04:35.047Z,97976.22
2022-12-15T07:07:20.656Z,97984.09
2022-12-15T07:10:06.504Z,97985.72
2022-12-15T07:12:52.033Z,97990.94
2022-12-15T07:15:37.469Z,97994.91
2022-12-15T07:18:23.021Z,98006.75
2022-12-15T07:21:09.815Z,98003.56
2022-12-15T07:23:56.690Z,98009.09
2022-12-15T07:26:42.817Z,98015.50
2022-12-15T07:29:28.077Z,98009.63
2022-12-15T07:32:13.498Z,98008.06
2022-12-15T07:34:59.086Z,98008.06
2022-12-15T07:37:44.378Z,98010.50
2022-12-15T07:40:29.592Z,98008.06
2022-12-15T07:43:14.814Z,98017.94
2022-12-15T07:46:00.189Z,98020.69
2022-12-15T07:48:50.658Z,98024.25
2022-12-15T07:51:36.566Z,98028.22
2022-12-15T07:54:22.133Z,98034.53
2022-12-15T07:57:07.641Z,98040.50
2022-12-15T07:59:53.096Z,98038.97
2022-12-15T08:02:43.130Z,98044.94
2022-12-15T08:05:28.760Z,98037.41
2022-12-15T08:08:15.546Z,98038.16
2022-12-15T08:11:05.633Z,98040.94
2022-12-15T08:16:56.894Z,98051.22
2022-12-15T08:19:41.918Z,98050.13
2022-12-15T08:22:27.237Z,98044.59
2022-12-15T08:25:12.563Z,98051.66
2022-12-15T08:27:57.746Z,98056.00
2022-12-15T08:30:42.940Z,98061.09
2022-12-15T08:33:28.707Z,98060.31
2022-12-15T08:36:17.020Z,98067.84
2022-12-15T08:39:03.502Z,98065.06
2022-12-15T08:41:49.961Z,98071.03
2022-12-15T08:44:35.714Z,98077.78
2022-12-15T08:47:21.128Z,98082.56
2022-12-15T08:50:08.603Z,98077.78
2022-12-15T08:53:21.502Z,98080.56
2022-12-15T08:56:07.272Z,98073.47
2022-12-15T08:58:58.997Z,98059.63
2022-12-15T09:01:44.746Z,98073.91
2022-12-15T09:04:30.563Z,98076.69
2022-12-15T09:07:16.309Z,98071.50
2022-12-15T09:10:01.641Z,98065.16
2022-12-15T09:12:46.872Z,98069.50
2022-12-15T09:16:07.078Z,98077.03
2022-12-15T09:18:37.745Z,98071.50
2022-12-15T09:21:26.357Z,98079.00
2022-12-15T09:24:20.553Z,98080.22
2022-12-15T09:27:11.576Z,98085.75
2022-12-15T09:29:57.999Z,98081.44
2022-12-15T09:32:43.361Z,98078.69
2022-12-15T09:35:28.807Z,98091.28
2022-12-15T09:38:14.044Z,98081.44
2022-12-15T09:41:09.106Z,98086.53
2022-12-15T09:44:03.045Z,98089.75
2022-12-15T09:46:57.553Z,98088.53
2022-12-15T09:49:56.361Z,98084.97
2022-12-15T09:52:51.808Z,98085.75
2022-12-15T09:55:37.580Z,98088.09
2022-12-15T09:58:38.403Z,98085.75
2022-12-15T10:01:29.650Z,98098.38
2022-12-15T10:04:38.485Z,98099.59
2022-12-15T10:07:37.105Z,98094.47
2022-12-15T10:10:32.439Z,98107.22
2022-12-15T10:13:24.471Z,98117.09
2022-12-15T10:16:36.563Z,98121.75
2022-12-15T10:19:33.956Z,98103.13
2022-12-15T10:22:26.393Z,98104.34
2022-12-15T10:25:27.549Z,98120.50
2022-12-15T10:28:24.354Z,98110.25
2022-12-15T10:31:33.043Z,98113.00
2022-12-15T10:34:29.027Z,98115.78
2022-12-15T10:37:20.088Z,98109.00
2022-12-15T10:40:06.358Z,98116.53
2022-12-15T10:42:51.665Z,98117.31
2022-12-15T10:45:39.695Z,98118.09
2022-12-15T10:48:25.363Z,98115.78
2022-12-15T10:51:13.756Z,98120.50
2022-12-15T10:54:01.977Z,98118.19
2022-12-15T10:57:00.561Z,98120.50
2022-12-15T10:59:45.942Z,98115.78
2022-12-15T11:02:36.952Z,98114.19
2022-12-15T11:05:23.029Z,98119.31
2022-12-15T11:08:16.980Z,98107.03
2022-12-15T11:11:25.950Z,98112.13
2022-12-15T11:14:23.459Z,98120.44
2022-12-15T11:17:08.956Z,98120.00
2022-12-15T11:20:04.414Z,98121.19
2022-12-15T11:22:57.487Z,98119.31
2022-12-15T11:26:04.919Z,98127.19
2022-12-15T11:29:28.326Z,98122.44
2022-12-15T11:32:15.442Z,98123.63
2022-12-15T11:35:01.162Z,98121.31
2022-12-15T11:37:56.714Z,98118.97
2022-12-15T11:40:43.185Z,98123.28
2022-12-15T11:43:57.165Z,98114.97
2022-12-15T11:46:59.492Z,98117.31
2022-12-15T11:49:44.877Z,98120.84
2022-12-15T11:53:09.252Z,98130.72
2022-12-15T11:56:12.455Z,98125.19
2022-12-15T11:59:15.816Z,98110.59
2022-12-15T12:02:26.362Z,98118.09
2022-12-15T12:05:31.593Z,98116.88
2022-12-15T12:08:47.958Z,98115.31
2022-12-15T12:11:54.036Z,98102.28
2022-12-15T12:14:56.142Z,98097.50
2022-12-15T12:18:01.518Z,98106.25
2022-12-15T12:20:53.964Z,98106.66
2022-12-15T12:23:54.001Z,98102.78
2022-12-15T12:26:48.760Z,98101.59
2022-12-15T12:29:55.801Z,98101.59
2022-12-15T12:33:22.765Z,98096.81
2022-12-15T12:36:13.809Z,98100.38
2022-12-15T12:38:59.625Z,98096.41
2022-12-15T12:42:07.619Z,98090.06
2022-12-15T12:44:53.008Z,98095.94
2022-12-15T12:47:44.483Z,98084.88
2022-12-15T12:50:33.540Z,98090.41
2022-12-15T12:53:27.177Z,98101.94
2022-12-15T12:56:42.343Z,98103.47
2022-12-15T12:59:27.896Z,98098.72
2022-12-15T13:02:38.226Z,98112.22
2022-12-15T13:05:26.106Z,98109.13
2022-12-15T13:08:12.418Z,98105.31
2022-12-15T13:11:56.565Z,98109.63
2022-12-15T13:14:44.963Z,98104.91
2022-12-15T13:17:41.623Z,98101.31
2022-12-15T13:20:30.730Z,98109.63
2022-12-15T13:23:22.477Z,98109.13
2022-12-15T13:26:07.856Z,98099.06
2022-12-15T13:28:56.209Z,98096.28
2022-12-15T13:31:49.051Z,98100.72
2022-12-15T13:34:41.324Z,98102.50
2022-12-15T13:37:49.084Z,98107.09
2022-12-15T13:40:35.358Z,98108.91
2022-12-15T13:43:26.811Z,98108.00
2022-12-15T13:46:18.264Z,98110.34
2022-12-15T13:49:14.227Z,98109.22
2022-12-15T13:52:04.256Z,98108.34
2022-12-15T13:54:56.326Z,98113.38
2022-12-15T13:57:54.442Z,98123.56
2022-12-15T14:00:50.370Z,98134.91
2022-12-15T14:03:37.228Z,98139.13
2022-12-15T14:06:23.391Z,98139.78
2022-12-15T14:09:14.724Z,98146.78
2022-12-15T14:12:02.246Z,98148.28
2022-12-15T14:14:49.820Z,98145.81
2022-12-15T14:17:36.716Z,98143.72
2022-12-15T14:20:32.009Z,98132.97
2022-12-15T14:23:24.222Z,98138.53
2022-12-15T14:26:12.020Z,98134.97
2022-12-15T14:29:02.763Z,98136.88
2022-12-15T14:31:57.468Z,98129.22
2022-12-15T14:34:44.209Z,98133.91
2022-12-15T14:37:36.377Z,98141.00
2022-12-15T14:40:28.404Z,98138.59
2022-12-15T14:43:23.136Z,98145.25
2022-12-15T14:46:16.590Z,98142.47
2022-12-15T14:49:08.070Z,98142.81
2022-12-15T14:51:59.364Z,98151.47
2022-12-15T14:54:54.112Z,98149.81
2022-12-15T14:57:47.493Z,98141.06
2022-12-15T15:00:48.873Z,98148.16
2022-12-15T15:03:39.700Z,98139.84
2022-12-15T15:06:33.152Z,98144.94
2022-12-15T15:09:21.892Z,98137.84
2022-12-15T15:12:17.895Z,98121.66
2022-12-15T15:15:06.142Z,98128.75
2022-12-15T15:17:59.025Z,98134.28
2022-12-15T15:20:54.417Z,98130.75
2022-12-15T15:23:40.436Z,98141.06
2022-12-15T15:26:27.076Z,98144.69
2022-12-15T15:29:39.272Z,98137.63
2022-12-15T15:32:25.346Z,98142.59
2022-12-15T15:35:11.033Z,98134.97
2022-12-15T15:38:20.184Z,98131.44
2022-12-15T15:41:18.225Z,98137.75
2022-12-15T15:44:12.741Z,98140.94
2022-12-15T15:46:58.187Z,98149.72
2022-12-15T15:49:44.601Z,98137.97
2022-12-15T15:52:32.031Z,98151.13
2022-12-15T15:55:36.228Z,98146.03
2022-12-15T15:58:23.759Z,98156.34
2022-12-15T16:01:13.069Z,98150.44
2022-12-15T16:03:59.153Z,98150.84
2022-12-15T16:06:47.582Z,98157.63
2022-12-15T16:09:33.809Z,98153.31
2022-12-15T16:12:29.679Z,98158.84
2022-12-15T16:15:21.706Z,98159.63
2022-12-15T16:18:07.150Z,98167.94
2022-12-15T16:20:52.485Z,98183.00
2022-12-15T16:23:37.944Z,98173.84
2022-12-15T16:26:30.006Z,98172.25
2022-12-15T16:29:18.544Z,98175.91
2022-12-15T16:32:06.140Z,98175.56
2022-12-15T16:34:54.611Z,98171.56
2022-12-15T16:37:46.664Z,98178.78
2022-12-15T16:40:37.693Z,98175.56
2022-12-15T16:43:26.942Z,98187.09
2022-12-15T16:46:18.417Z,98199.19
2022-12-15T16:49:08.723Z,98198.84
2022-12-15T16:51:56.423Z,98198.41
2022-12-15T16:54:45.168Z,98192.88
2022-12-15T16:57:30.417Z,98201.91
2022-12-15T17:00:18.818Z,98195.91
2022-12-15T17:03:04.334Z,98188.06
2022-12-15T17:05:50.610Z,98191.66
2022-12-15T17:08:49.671Z,98188.88
2022-12-15T17:11:35.404Z,98186.88
2022-12-15T17:14:20.887Z,98190.09
2022-12-15T17:17:14.625Z,98184.09
2022-12-15T17:23:11.722Z,98200.84
2022-12-15T17:36:35.465Z,98178.94
2022-12-15T17:39:21.740Z,98168.31
2022-12-15T17:42:19.640Z,98173.84
2022-12-15T17:45:17.536Z,98182.16
2022-12-15T17:48:03.044Z,98182.16
2022-12-15T17:50:50.159Z,98182.50
2022-12-15T17:53:36.295Z,98191.16
2022-12-15T17:56:26.782Z,98182.72
2022-12-15T17:59:20.209Z,98176.75
2022-12-15T18:02:06.235Z,98176.00
2022-12-15T18:04:52.361Z,98172.88
2022-12-15T18:07:37.922Z,98168.19
2022-12-15T18:10:38.159Z,98158.78
2022-12-15T18:13:27.944Z,98154.47
2022-12-15T18:16:16.078Z,98150.72
2022-12-15T18:19:01.585Z,98146.50
2022-12-15T18:21:47.586Z,98148.28
2022-12-15T18:24:33.401Z,98152.44
2022-12-15T18:27:23.529Z,98156.88
2022-12-15T18:30:18.226Z,98166.47
2022-12-15T18:33:03.900Z,98170.47
2022-12-15T18:35:51.263Z,98178.75
2022-12-15T18:38:37.093Z,98182.00
2022-12-15T18:41:22.453Z,98182.84
2022-12-15T18:44:31.410Z,98178.25
2022-12-15T18:47:20.107Z,98173.94
2022-12-15T18:50:09.070Z,98167.66
2022-12-15T18:53:02.819Z,98166.50
2022-12-15T19:01:12.922Z,98157.75
2022-12-15T19:03:58.149Z,98152.66
2022-12-15T19:06:44.696Z,98161.31
2022-12-15T19:09:29.941Z,98158.72
2022-12-15T19:12:18.636Z,98161.16
2022-12-15T19:15:06.908Z,98157.97
2022-12-15T19:18:11.049Z,98163.50
2022-12-15T19:21:14.763Z,98168.69
2022-12-15T19:24:00.636Z,98157.69
2022-12-15T19:26:45.904Z,98150.25
2022-12-15T19:29:31.224Z,98159.44
2022-12-15T19:32:19.380Z,98151.16
2022-12-15T19:35:05.319Z,98149.56
2022-12-15T19:37:51.152Z,98155.09
2022-12-15T19:40:37.797Z,98158.22
2022-12-15T19:43:24.931Z,98154.56
2022-12-15T19:46:17.124Z,98146.63
2022-12-15T19:49:02.723Z,98151.72
2022-12-15T19:51:48.039Z,98154.91
2022-12-15T19:54:33.401Z,98152.59
2022-12-15T19:57:19.237Z,98156.22
2022-12-15T20:00:17.795Z,98155.03
2022-12-15T20:03:03.263Z,98154.56
2022-12-15T20:05:51.940Z,98144.72
2022-12-15T20:08:40.775Z,98146.72
2022-12-15T20:11:29.402Z,98143.50
2022-12-15T20:14:19.491Z,98143.06
2022-12-15T20:17:05.146Z,98147.84
2022-12-15T20:19:50.350Z,98138.31
2022-12-15T20:22:35.941Z,98129.56
2022-12-15T20:25:26.014Z,98131.91
2022-12-15T20:28:19.029Z,98135.53
2022-12-15T20:31:04.611Z,98117.72
2022-12-15T20:33:50.444Z,98113.75
2022-12-15T20:36:36.465Z,98112.19
2022-12-15T20:39:27.710Z,98108.66
2022-12-15T20:42:20.075Z,98100.34
2022-12-15T20:45:05.908Z,98095.59
2022-12-15T20:47:53.410Z,98095.25
2022-12-15T20:50:42.875Z,98092.47
2022-12-15T20:53:28.405Z,98094.00
2022-12-15T20:56:13.945Z,98084.16
2022-12-15T20:58:59.357Z,98080.63
2022-12-15T21:01:45.172Z,98079.84
2022-12-15T21:04:32.086Z,98077.41
2022-12-15T21:07:17.628Z,98078.63
2022-12-15T21:10:03.572Z,98084.16
2022-12-15T21:12:49.843Z,98086.94
2022-12-15T21:15:35.262Z,98090.47
2022-12-15T21:19:03.638Z,98086.94
2022-12-15T21:21:28.450Z,98074.28
2022-12-15T21:24:19.670Z,98066.88
2022-12-15T21:27:06.206Z,98067.31
2022-12-15T21:29:52.926Z,98068.88
2022-12-15T21:32:38.474Z,98068.53
2022-12-15T21:35:27.335Z,98064.66
2022-12-15T21:38:30.263Z,98056.34
2022-12-15T21:41:18.744Z,98058.78
2022-12-15T21:44:03.985Z,98054.00
2022-12-15T21:46:49.167Z,98054.44
2022-12-15T21:49:37.108Z,98054.09
2022-12-15T21:52:26.120Z,98052.53
2022-12-15T21:55:16.402Z,98065.16
2022-12-15T21:58:02.268Z,98063.41
2022-12-15T22:00:48.020Z,98067.41
2022-12-15T22:03:33.884Z,98059.44
2022-12-15T22:06:22.202Z,98061.75
2022-12-15T22:09:11.073Z,98062.09
2022-12-15T22:11:56.991Z,98059.25
2022-12-15T22:14:42.466Z,98065.56
2022-12-15T22:17:28.150Z,98071.22
2022-12-15T22:20:19.203Z,98075.19
2022-12-15T22:23:04.756Z,98078.38
2022-12-15T22:25:54.795Z,98084.03
2022-12-15T22:28:40.187Z,98086.44
2022-12-15T22:31:26.002Z,98079.34
2022-12-15T22:34:16.925Z,98079.34
2022-12-15T22:37:02.641Z,98076.22
2022-12-15T22:39:49.485Z,98078.00
2022-12-15T22:42:39.699Z,98076.94
2022-12-15T22:45:25.622Z,98087.31
2022-12-15T22:48:14.588Z,98086.97
2022-12-15T22:51:00.933Z,98091.38
2022-12-15T22:53:46.706Z,98095.38
2022-12-15T22:56:39.532Z,98087.50
2022-12-15T22:59:30.737Z,98089.56
2022-12-15T23:02:17.502Z,98091.97
2022-12-15T23:05:03.973Z,98092.84
2022-12-15T23:07:49.634Z,98093.63
2022-12-15T23:10:53.605Z,98103.91
2022-12-15T23:13:40.016Z,98104.78
2022-12-15T23:16:25.876Z,98095.34
2022-12-15T23:19:23.787Z,98095.34
2022-12-15T23:22:09.700Z,98085.94
2022-12-15T23:24:55.080Z,98067.34
2022-12-15T23:27:40.243Z,98060.19
2022-12-15T23:30:25.705Z,98058.53
2022-12-15T23:33:10.972Z,98055.31
2022-12-15T23:35:58.539Z,98063.63
2022-12-15T23:38:44.719Z,98062.09
2022-12-15T23:41:30.186Z,98065.19
2022-12-15T23:44:15.555Z,98057.66
2022-12-15T23:47:00.895Z,98052.56
2022-12-15T23:49:46.636Z,98048.59
2022-12-15T23:52:31.923Z,98054.13
2022-12-15T23:55:17.319Z,98053.34
2022-12-15T23:58:03.507Z,98061.66
